Time;durP1;ratioP1;P1;durP2;ratioP2;P2;SDS_P1;SDS_P2;PMS_P1;PMS_P2;Temp;Humidity;BMP_temperature;BMP_pressure;BME280_temperature;BME280_humidity;BME280_pressure;Samples;Min_cycle;Max_cycle;Signal;HPM_P1;HPM_P2
2021/11/27 00:00:46;;;;;;;23.48;11.68;;;3.80;99.90;;;;;;5002900;28;20439;-62
2021/11/27 00:03:13;;;;;;;21.00;11.80;;;3.80;99.90;;;;;;4990781;28;20088;-62
2021/11/27 00:05:40;;;;;;;22.73;12.65;;;3.80;99.90;;;;;;4990728;28;20045;-60
2021/11/27 00:08:07;;;;;;;23.95;13.38;;;3.80;99.90;;;;;;4989689;28;20031;-61
2021/11/27 00:10:34;;;;;;;24.40;13.25;;;3.80;99.90;;;;;;4989926;28;20037;-62
2021/11/27 00:13:01;;;;;;;26.27;13.40;;;3.80;99.90;;;;;;4990303;28;20390;-62
2021/11/27 00:15:29;;;;;;;23.73;13.48;;;3.80;99.90;;;;;;4990398;28;20022;-61
2021/11/27 00:17:56;;;;;;;23.52;12.93;;;3.90;99.90;;;;;;4989934;28;20035;-63
2021/11/27 00:20:29;;;;;;;25.25;13.88;;;3.80;99.90;;;;;;4990388;28;20396;-61
2021/11/27 00:22:55;;;;;;;26.27;13.75;;;3.90;99.90;;;;;;4990272;28;20484;-63
2021/11/27 00:25:21;;;;;;;20.55;12.25;;;3.90;99.90;;;;;;4990422;28;20041;-62
2021/11/27 00:27:47;;;;;;;23.40;12.77;;;3.90;99.90;;;;;;4990253;28;20045;-61
2021/11/27 00:30:17;;;;;;;23.50;13.27;;;3.90;99.90;;;;;;4993042;28;20030;-65
2021/11/27 00:32:47;;;;;;;24.45;13.20;;;3.80;99.90;;;;;;4994175;28;20088;-62
2021/11/27 00:35:12;;;;;;;23.33;13.25;;;3.90;99.90;;;;;;4993897;28;20031;-63
2021/11/27 00:37:39;;;;;;;23.10;12.55;;;3.80;99.90;;;;;;4993865;28;20503;-62
2021/11/27 00:40:08;;;;;;;22.95;13.27;;;3.90;99.90;;;;;;4993261;28;20030;-62
2021/11/27 00:42:33;;;;;;;22.17;12.98;;;3.90;99.90;;;;;;4992395;28;20030;-63
2021/11/27 00:45:00;;;;;;;23.42;12.77;;;3.80;99.90;;;;;;4993821;28;20026;-63
2021/11/27 00:47:25;;;;;;;25.92;14.07;;;3.90;99.90;;;;;;4993768;28;20034;-62
2021/11/27 00:49:53;;;;;;;24.25;13.52;;;3.90;99.90;;;;;;4993251;28;20049;-61
2021/11/27 00:52:22;;;;;;;20.63;12.50;;;3.90;99.90;;;;;;4993586;28;20427;-61
2021/11/27 00:54:49;;;;;;;28.50;14.13;;;3.90;99.90;;;;;;4994080;28;20049;-61
2021/11/27 00:57:15;;;;;;;25.73;12.15;;;3.90;99.90;;;;;;4993465;28;20107;-62
2021/11/27 00:59:41;;;;;;;23.63;13.38;;;3.90;99.90;;;;;;4992950;28;20102;-63
2021/11/27 01:02:07;;;;;;;29.35;14.43;;;3.90;99.90;;;;;;4993204;28;20130;-61
2021/11/27 01:04:32;;;;;;;24.58;13.52;;;3.90;99.90;;;;;;4993456;28;20033;-63
2021/11/27 01:06:58;;;;;;;21.45;12.13;;;3.90;99.90;;;;;;4993172;28;20377;-61
2021/11/27 01:09:24;;;;;;;22.13;13.70;;;3.90;99.90;;;;;;4992556;28;20102;-61
2021/11/27 01:11:53;;;;;;;23.77;14.07;;;3.90;99.90;;;;;;5008472;28;20033;-62
2021/11/27 01:14:27;;;;;;;24.48;14.50;;;3.90;99.90;;;;;;4993058;28;20464;-62
2021/11/27 01:16:56;;;;;;;23.15;13.02;;;3.90;99.90;;;;;;5007719;28;20034;-62
2021/11/27 01:19:24;;;;;;;24.30;14.05;;;4.00;99.90;;;;;;4992753;28;20514;-62
2021/11/27 01:21:54;;;;;;;25.02;13.02;;;4.00;99.90;;;;;;4993169;28;20117;-61
2021/11/27 01:24:20;;;;;;;24.45;14.10;;;4.00;99.90;;;;;;4992970;28;20025;-61
2021/11/27 01:26:46;;;;;;;28.08;14.18;;;3.90;99.90;;;;;;4991665;28;20136;-61
2021/11/27 01:29:13;;;;;;;21.58;12.98;;;3.90;99.90;;;;;;4992307;28;20084;-61
2021/11/27 01:31:39;;;;;;;22.23;13.07;;;3.90;99.90;;;;;;4993328;28;20078;-62
2021/11/27 01:34:08;;;;;;;24.23;13.75;;;4.00;99.90;;;;;;4993257;28;20043;-61
2021/11/27 01:36:35;;;;;;;24.80;13.80;;;3.90;99.90;;;;;;5008042;28;20034;-61
2021/11/27 01:39:01;;;;;;;23.70;12.45;;;4.00;99.90;;;;;;4992029;28;20152;-62
2021/11/27 01:41:27;;;;;;;23.50;13.93;;;4.00;99.90;;;;;;4992802;28;20117;-62
2021/11/27 01:43:53;;;;;;;23.30;13.52;;;3.90;99.90;;;;;;4992606;28;20388;-60
2021/11/27 01:46:19;;;;;;;25.25;13.98;;;4.00;99.90;;;;;;4992644;28;20033;-61
2021/11/27 01:48:45;;;;;;;27.52;14.80;;;4.00;99.90;;;;;;4991928;28;20031;-61
2021/11/27 01:51:19;;;;;;;27.30;14.15;;;4.00;99.90;;;;;;5007316;28;20462;-63
2021/11/27 01:53:55;;;;;;;27.35;13.68;;;4.00;99.90;;;;;;4992316;28;20037;-62
2021/11/27 01:56:29;;;;;;;26.25;14.55;;;4.00;99.90;;;;;;4992354;28;20049;-61
2021/11/27 01:58:55;;;;;;;27.60;14.88;;;4.00;99.90;;;;;;4991516;28;20030;-61
2021/11/27 02:01:25;;;;;;;26.58;13.52;;;4.00;99.90;;;;;;5007130;28;20030;-61
2021/11/27 02:03:51;;;;;;;24.65;12.93;;;3.90;99.90;;;;;;4992093;28;20023;-61
2021/11/27 02:06:19;;;;;;;26.73;14.10;;;4.00;99.90;;;;;;4992350;28;20389;-60
2021/11/27 02:08:49;;;;;;;24.40;13.43;;;4.00;99.90;;;;;;4991678;28;20058;-61
2021/11/27 02:11:17;;;;;;;22.73;13.00;;;4.00;99.90;;;;;;4990931;28;20109;-60
2021/11/27 02:13:43;;;;;;;27.70;13.90;;;4.00;99.90;;;;;;4992440;28;20117;-61
2021/11/27 02:16:09;;;;;;;25.33;13.88;;;4.00;99.90;;;;;;4991813;28;20174;-60
2021/11/27 02:18:34;;;;;;;26.33;13.88;;;4.00;99.90;;;;;;4991355;28;20030;-62
2021/11/27 02:21:05;;;;;;;26.27;14.48;;;4.00;99.90;;;;;;4991603;28;20031;-62
2021/11/27 02:23:32;;;;;;;24.42;13.52;;;4.00;99.90;;;;;;4992086;28;20471;-60
2021/11/27 02:26:03;;;;;;;26.30;14.07;;;4.00;99.90;;;;;;5006736;28;20030;-62
2021/11/27 02:28:30;;;;;;;25.20;14.37;;;4.00;99.90;;;;;;4991205;28;20029;-62
2021/11/27 02:30:57;;;;;;;28.05;14.70;;;4.00;99.90;;;;;;5006580;28;20266;-62
2021/11/27 02:33:23;;;;;;;30.30;17.05;;;4.00;99.90;;;;;;4991858;28;20606;-61
2021/11/27 02:35:48;;;;;;;27.02;15.57;;;4.10;99.90;;;;;;4991708;28;20026;-62
2021/11/27 02:38:14;;;;;;;30.38;16.67;;;4.10;99.90;;;;;;4989931;28;20058;-60
2021/11/27 02:40:41;;;;;;;29.25;15.40;;;4.10;99.90;;;;;;4991524;28;20026;-61
2021/11/27 02:43:08;;;;;;;28.85;16.13;;;4.10;99.90;;;;;;4991193;28;20037;-63
2021/11/27 02:45:34;;;;;;;29.85;16.75;;;4.10;99.90;;;;;;4991558;28;20073;-62
2021/11/27 02:47:59;;;;;;;29.63;15.75;;;4.10;99.90;;;;;;4990569;28;20038;-60
2021/11/27 02:50:25;;;;;;;29.48;15.40;;;4.10;99.90;;;;;;4991399;28;20022;-60
2021/11/27 02:52:52;;;;;;;35.55;16.65;;;4.10;99.90;;;;;;4990825;28;20603;-62
2021/11/27 02:55:18;;;;;;;33.92;16.15;;;4.10;99.90;;;;;;4991322;28;20113;-62
2021/11/27 02:57:43;;;;;;;27.92;15.88;;;4.10;99.90;;;;;;4991013;28;20160;-62
2021/11/27 03:00:17;;;;;;;38.22;18.63;;;4.10;99.90;;;;;;4990710;28;20058;-62
2021/11/27 03:02:44;;;;;;;36.38;18.27;;;4.10;99.90;;;;;;4991337;28;20073;-63
2021/11/27 03:05:10;;;;;;;33.92;18.40;;;4.10;99.90;;;;;;4991014;28;20026;-61
2021/11/27 03:07:36;;;;;;;35.78;18.40;;;4.10;99.90;;;;;;4991197;28;20029;-61
2021/11/27 03:10:04;;;;;;;31.05;17.02;;;4.00;99.90;;;;;;4990679;28;20448;-61
2021/11/27 03:12:31;;;;;;;33.78;17.95;;;4.10;99.90;;;;;;4991652;28;20084;-61
2021/11/27 03:14:58;;;;;;;29.08;16.08;;;4.10;99.90;;;;;;4991305;28;20377;-60
2021/11/27 03:17:24;;;;;;;33.40;18.58;;;4.10;99.90;;;;;;4991122;28;20026;-61
2021/11/27 03:19:50;;;;;;;38.53;18.50;;;4.10;99.90;;;;;;4990738;28;20030;-60
2021/11/27 03:22:19;;;;;;;32.30;17.63;;;4.10;99.90;;;;;;4990978;28;20031;-58
2021/11/27 03:24:45;;;;;;;49.65;18.33;;;4.10;99.90;;;;;;4991050;28;20022;-59
2021/11/27 03:27:11;;;;;;;31.60;17.52;;;4.10;99.90;;;;;;4990838;28;20519;-61
2021/11/27 03:29:37;;;;;;;37.95;17.50;;;4.10;99.90;;;;;;4990578;28;20033;-61
2021/11/27 03:32:09;;;;;;;34.70;16.70;;;4.00;99.90;;;;;;4990989;28;20034;-61
2021/11/27 03:34:35;;;;;;;;;;;4.00;99.90;;;;;;4991574;28;20046;-61
2021/11/27 03:37:01;;;;;;;34.17;16.77;;;4.00;99.90;;;;;;4992075;28;19909;-61
2021/11/27 03:39:27;;;;;;;30.48;16.42;;;4.00;99.90;;;;;;4991186;28;20038;-61
2021/11/27 03:41:53;;;;;;;35.63;17.30;;;4.00;99.90;;;;;;4990874;28;20041;-61
2021/11/27 03:44:19;;;;;;;33.67;17.33;;;4.00;99.90;;;;;;4991601;28;20032;-61
2021/11/27 03:46:46;;;;;;;35.22;16.77;;;4.00;99.90;;;;;;4989715;28;20054;-61
2021/11/27 03:49:12;;;;;;;32.72;16.05;;;3.90;99.90;;;;;;4991051;28;20027;-61
2021/11/27 03:51:38;;;;;;;32.25;16.70;;;3.90;99.90;;;;;;4990866;28;20056;-62
2021/11/27 03:54:04;;;;;;;34.10;17.75;;;4.00;99.90;;;;;;4990854;28;20038;-60
2021/11/27 03:56:31;;;;;;;30.30;16.17;;;4.00;99.90;;;;;;4990895;28;20519;-62
2021/11/27 03:59:00;;;;;;;36.05;18.77;;;4.00;99.90;;;;;;4989973;28;20051;-61
2021/11/27 04:01:27;;;;;;;33.88;18.08;;;4.00;99.90;;;;;;5006466;28;20117;-62
2021/11/27 04:03:55;;;;;;;38.05;17.52;;;4.00;99.90;;;;;;5002345;28;20042;-62
2021/11/27 04:06:21;;;;;;;41.10;19.13;;;4.00;99.90;;;;;;5013027;28;20018;-62
2021/11/27 04:08:47;;;;;;;42.42;18.73;;;4.00;99.90;;;;;;5008513;28;20430;-62
2021/11/27 04:11:14;;;;;;;34.83;16.90;;;4.00;99.90;;;;;;5013395;28;20030;-63
2021/11/27 04:13:40;;;;;;;36.28;19.10;;;3.90;99.90;;;;;;5011901;28;20116;-63
2021/11/27 04:16:06;;;;;;;37.10;18.92;;;3.90;99.90;;;;;;5012119;28;20033;-62
2021/11/27 04:18:31;;;;;;;35.38;17.95;;;3.90;99.90;;;;;;5012850;28;20026;-62
2021/11/27 04:20:57;;;;;;;40.30;19.77;;;3.90;99.90;;;;;;5011748;28;20034;-62
2021/11/27 04:23:23;;;;;;;36.17;19.48;;;3.90;99.90;;;;;;5012442;28;20475;-62
2021/11/27 04:25:50;;;;;;;39.42;19.75;;;3.80;99.90;;;;;;5013635;28;20060;-61
2021/11/27 04:28:15;;;;;;;44.63;20.00;;;3.80;99.90;;;;;;5010966;28;20030;-61
2021/11/27 04:30:42;;;;;;;40.08;19.27;;;3.80;99.90;;;;;;5013429;28;20542;-61
2021/11/27 04:33:08;;;;;;;38.08;19.15;;;3.80;99.90;;;;;;5012249;28;20030;-62
2021/11/27 04:35:35;;;;;;;35.35;18.42;;;3.80;99.90;;;;;;5010408;28;20034;-61
2021/11/27 04:38:01;;;;;;;38.33;20.00;;;3.70;99.90;;;;;;5010712;28;20046;-62
2021/11/27 04:40:29;;;;;;;39.90;19.60;;;3.70;99.90;;;;;;5011298;28;20065;-61
2021/11/27 04:42:55;;;;;;;38.08;20.15;;;3.70;99.90;;;;;;5012819;28;20061;-61
2021/11/27 04:45:21;;;;;;;37.80;19.02;;;3.70;99.90;;;;;;5012081;28;20049;-62
2021/11/27 04:47:47;;;;;;;42.50;20.33;;;3.70;99.90;;;;;;5004668;28;20037;-62
2021/11/27 04:50:15;;;;;;;36.47;18.83;;;3.70;99.90;;;;;;5011247;28;20030;-62
2021/11/27 04:52:41;;;;;;;38.72;20.05;;;3.70;99.90;;;;;;5012829;28;20387;-61
2021/11/27 04:55:08;;;;;;;38.55;19.70;;;3.70;99.90;;;;;;5011096;28;20560;-62
2021/11/27 04:57:35;;;;;;;40.30;19.90;;;3.70;99.90;;;;;;5012775;28;20076;-63
2021/11/27 05:00:01;;;;;;;38.90;20.02;;;3.70;99.90;;;;;;5009431;28;20032;-62
2021/11/27 05:02:26;;;;;;;40.90;19.63;;;3.70;99.90;;;;;;5012520;28;20037;-62
2021/11/27 05:04:52;;;;;;;34.50;19.15;;;3.70;99.90;;;;;;4993288;28;20034;-62
2021/11/27 05:07:18;;;;;;;40.03;19.98;;;3.70;99.90;;;;;;5012701;28;20036;-62
2021/11/27 05:09:44;;;;;;;34.97;18.48;;;3.70;99.90;;;;;;5011429;28;20510;-62
2021/11/27 05:12:10;;;;;;;36.03;19.63;;;3.70;99.90;;;;;;5012385;28;20022;-61
2021/11/27 05:14:35;;;;;;;40.88;20.67;;;3.70;99.90;;;;;;5011370;28;20033;-62
2021/11/27 05:17:01;;;;;;;37.00;19.15;;;3.70;99.90;;;;;;5012253;28;20140;-63
2021/11/27 05:19:27;;;;;;;36.40;19.10;;;3.70;99.90;;;;;;5011152;28;20108;-62
2021/11/27 05:21:53;;;;;;;38.80;20.52;;;3.70;99.90;;;;;;5012264;28;20060;-62
2021/11/27 05:24:19;;;;;;;38.35;18.98;;;3.70;99.90;;;;;;5011729;28;20093;-62
2021/11/27 05:26:44;;;;;;;38.72;18.63;;;3.70;99.90;;;;;;5012499;28;20022;-62
2021/11/27 05:29:10;;;;;;;35.03;18.77;;;3.70;99.90;;;;;;5010967;28;20096;-62
2021/11/27 05:31:36;;;;;;;37.78;19.08;;;3.70;99.90;;;;;;5011534;28;20034;-62
2021/11/27 05:36:31;;;;;;;35.92;19.13;;;3.70;99.90;;;;;;5011516;28;20561;-62
2021/11/27 05:38:57;;;;;;;36.42;18.63;;;3.70;99.90;;;;;;5011490;28;20505;-63
2021/11/27 05:41:23;;;;;;;38.42;19.92;;;3.60;99.90;;;;;;5011379;28;20030;-62
2021/11/27 05:43:49;;;;;;;37.60;18.90;;;3.70;99.90;;;;;;5012329;28;20393;-62
2021/11/27 05:46:15;;;;;;;40.08;18.90;;;3.70;99.90;;;;;;5011592;28;20032;-62
2021/11/27 05:48:41;;;;;;;33.15;17.58;;;3.60;99.90;;;;;;5011433;28;20038;-61
2021/11/27 05:51:07;;;;;;;38.90;19.50;;;3.70;99.90;;;;;;5012168;28;20112;-62
2021/11/27 05:53:33;;;;;;;36.90;19.20;;;3.60;99.90;;;;;;5011060;28;20091;-62
2021/11/27 05:55:59;;;;;;;40.13;18.70;;;3.70;99.90;;;;;;5011857;28;20101;-61
2021/11/27 05:58:25;;;;;;;38.95;18.42;;;3.60;99.90;;;;;;5010379;28;20026;-61
2021/11/27 06:00:52;;;;;;;39.08;19.23;;;3.60;99.90;;;;;;5010503;28;20372;-63
2021/11/27 06:03:18;;;;;;;35.30;18.80;;;3.60;99.90;;;;;;5010833;28;20035;-62
2021/11/27 06:05:44;;;;;;;37.35;18.85;;;3.70;99.90;;;;;;5011740;28;20022;-62
2021/11/27 06:08:10;;;;;;;38.92;18.98;;;3.60;99.90;;;;;;5010401;28;21068;-62
2021/11/27 06:10:37;;;;;;;39.67;20.05;;;3.60;99.90;;;;;;5011543;28;20034;-62
2021/11/27 06:13:03;;;;;;;40.65;19.98;;;3.60;99.90;;;;;;5011010;28;20034;-62
2021/11/27 06:15:30;;;;;;;40.20;19.70;;;3.70;99.90;;;;;;5011670;28;20033;-62
2021/11/27 06:17:56;;;;;;;35.92;19.27;;;3.70;99.90;;;;;;5009463;28;20064;-63
2021/11/27 06:20:22;;;;;;;40.00;19.13;;;3.60;99.90;;;;;;5010467;28;20375;-63
2021/11/27 06:22:48;;;;;;;36.08;19.08;;;3.70;99.90;;;;;;5011469;28;20037;-62
2021/11/27 06:25:14;;;;;;;35.85;19.45;;;3.70;99.90;;;;;;5010373;28;20034;-62
2021/11/27 06:27:40;;;;;;;38.75;18.52;;;3.70;99.90;;;;;;5009450;28;20034;-63
2021/11/27 06:30:07;;;;;;;35.03;18.70;;;3.70;99.90;;;;;;5010668;28;20484;-62
2021/11/27 06:32:33;;;;;;;35.85;19.33;;;3.70;99.90;;;;;;5010704;28;20038;-63
2021/11/27 06:34:59;;;;;;;37.42;19.65;;;3.70;99.90;;;;;;5011183;28;20458;-62
2021/11/27 06:37:25;;;;;;;36.63;17.52;;;3.70;99.90;;;;;;5010284;28;20036;-63
2021/11/27 06:39:51;;;;;;;35.90;18.40;;;3.70;99.90;;;;;;5009200;28;20026;-63
2021/11/27 06:42:17;;;;;;;45.00;20.40;;;3.70;99.90;;;;;;5010897;28;20153;-63
2021/11/27 06:44:50;;;;;;;41.53;19.10;;;3.70;99.90;;;;;;5010037;28;20522;-61
2021/11/27 06:47:17;;;;;;;40.50;19.83;;;3.70;99.90;;;;;;5010792;28;20069;-63
2021/11/27 06:49:44;;;;;;;33.72;18.50;;;3.70;99.90;;;;;;4993716;28;20034;-63
2021/11/27 06:52:10;;;;;;;36.83;18.17;;;3.70;99.90;;;;;;4989890;28;20064;-61
2021/11/27 06:54:37;;;;;;;38.13;18.17;;;3.70;99.90;;;;;;5007435;28;20034;-60
2021/11/27 06:57:03;;;;;;;37.78;19.55;;;3.70;99.90;;;;;;5010515;28;20125;-62
2021/11/27 06:59:29;;;;;;;42.03;18.88;;;3.70;99.90;;;;;;5009558;28;20034;-61
2021/11/27 07:01:55;;;;;;;37.13;18.90;;;3.70;99.90;;;;;;5010581;28;20072;-61
2021/11/27 07:04:22;;;;;;;41.10;19.00;;;3.70;99.90;;;;;;5010155;28;20478;-63
2021/11/27 07:06:48;;;;;;;43.25;18.63;;;3.70;99.90;;;;;;5002667;28;20022;-63
2021/11/27 07:09:14;;;;;;;40.03;18.88;;;3.80;99.90;;;;;;5008945;28;20364;-64
2021/11/27 07:11:40;;;;;;;39.13;19.00;;;3.80;99.90;;;;;;5010130;28;20033;-63
2021/11/27 07:14:06;;;;;;;40.05;18.95;;;3.80;99.90;;;;;;5009913;28;20026;-62
2021/11/27 07:16:31;;;;;;;39.08;19.05;;;3.80;99.90;;;;;;5010607;28;20557;-63
2021/11/27 07:18:57;;;;;;;37.50;19.60;;;3.80;99.90;;;;;;5008975;28;20108;-62
2021/11/27 07:21:23;;;;;;;38.95;18.60;;;3.80;99.90;;;;;;5010529;28;20088;-62
2021/11/27 07:23:49;;;;;;;42.15;18.60;;;3.80;99.90;;;;;;5009476;28;20040;-62
2021/11/27 07:26:15;;;;;;;36.63;18.50;;;3.80;99.90;;;;;;5010092;28;20105;-61
2021/11/27 07:28:41;;;;;;;35.97;18.27;;;3.80;99.90;;;;;;5007428;28;20121;-61
2021/11/27 07:31:07;;;;;;;37.42;18.63;;;3.80;99.90;;;;;;5010266;28;20033;-61
2021/11/27 07:33:33;;;;;;;31.70;17.83;;;3.80;99.90;;;;;;5009654;28;20591;-60
2021/11/27 07:35:59;;;;;;;36.63;18.45;;;3.80;99.90;;;;;;5010351;28;20491;-61
2021/11/27 07:38:24;;;;;;;40.15;19.38;;;3.80;99.90;;;;;;5010820;28;20498;-60
2021/11/27 07:40:50;;;;;;;39.38;19.38;;;3.80;99.90;;;;;;5013529;28;20033;-62
2021/11/27 07:43:16;;;;;;;37.95;19.10;;;3.80;99.90;;;;;;5014328;28;20026;-61
2021/11/27 07:45:42;;;;;;;34.42;17.45;;;3.80;99.90;;;;;;5013562;28;20034;-61
2021/11/27 07:48:07;;;;;;;36.60;18.95;;;3.80;99.90;;;;;;5013469;28;20033;-62
2021/11/27 07:50:34;;;;;;;39.45;18.88;;;3.80;99.90;;;;;;5013660;28;20491;-62
2021/11/27 07:53:00;;;;;;;37.92;19.90;;;3.90;99.90;;;;;;5013838;28;20026;-60
2021/11/27 07:55:27;;;;;;;38.80;19.67;;;3.80;99.90;;;;;;5013328;28;20037;-62
2021/11/27 07:57:53;;;;;;;39.72;19.02;;;3.90;99.90;;;;;;5012058;28;20479;-62
2021/11/27 08:00:18;;;;;;;32.95;18.00;;;3.90;99.90;;;;;;5013039;28;20037;-62
2021/11/27 08:02:44;;;;;;;37.67;20.15;;;3.90;99.90;;;;;;5013710;28;20527;-62
2021/11/27 08:05:10;;;;;;;35.40;18.27;;;3.90;99.90;;;;;;5012834;28;20018;-61
2021/11/27 08:07:36;;;;;;;34.80;19.85;;;3.80;99.90;;;;;;5013778;28;20068;-62
2021/11/27 08:10:08;;;;;;;41.15;18.15;;;3.90;99.90;;;;;;5011756;28;20366;-62
2021/11/27 08:12:33;;;;;;;37.83;18.67;;;3.90;99.90;;;;;;5013863;28;20026;-62
2021/11/27 08:14:59;;;;;;;40.25;18.98;;;3.90;99.90;;;;;;5012830;28;20495;-62
2021/11/27 08:17:25;;;;;;;42.55;20.17;;;3.90;99.90;;;;;;5012892;28;20029;-62
2021/11/27 08:19:51;;;;;;;39.20;19.38;;;3.90;99.90;;;;;;5012781;28;20088;-61
2021/11/27 08:22:17;;;;;;;36.28;19.38;;;3.90;99.90;;;;;;5012349;28;20100;-62
2021/11/27 08:24:43;;;;;;;34.97;18.23;;;3.90;99.90;;;;;;5013744;28;20100;-62
2021/11/27 08:27:09;;;;;;;40.45;19.33;;;4.00;99.90;;;;;;5012599;28;20044;-62
2021/11/27 08:29:35;;;;;;;38.55;19.55;;;4.00;99.90;;;;;;5012999;28;20034;-62
2021/11/27 08:32:01;;;;;;;38.83;19.42;;;4.10;99.90;;;;;;5012378;28;20113;-62
2021/11/27 08:34:27;;;;;;;35.90;19.27;;;4.10;99.90;;;;;;5013251;28;20033;-62
2021/11/27 08:36:53;;;;;;;40.35;19.20;;;4.20;99.90;;;;;;5012524;28;20037;-62
2021/11/27 08:39:18;;;;;;;38.45;18.05;;;4.20;99.90;;;;;;5012847;28;20547;-62
2021/11/27 08:41:44;;;;;;;36.65;19.08;;;4.20;99.90;;;;;;5012397;28;20033;-62
2021/11/27 08:44:10;;;;;;;36.70;18.98;;;4.10;99.90;;;;;;5012992;28;20030;-62
2021/11/27 08:46:36;;;;;;;39.55;19.00;;;4.10;99.90;;;;;;5013136;28;20487;-62
2021/11/27 08:49:02;;;;;;;37.42;20.15;;;4.20;99.90;;;;;;5010967;28;20034;-62
2021/11/27 08:51:28;;;;;;;35.00;18.80;;;4.20;99.90;;;;;;5011787;28;20036;-61
2021/11/27 08:53:54;;;;;;;39.00;19.08;;;4.30;99.90;;;;;;5012884;28;20037;-62
2021/11/27 08:56:20;;;;;;;37.03;18.88;;;4.30;99.90;;;;;;5012478;28;20045;-62
2021/11/27 08:58:46;;;;;;;40.25;19.63;;;4.30;99.90;;;;;;5011977;28;20041;-63
2021/11/27 09:01:12;;;;;;;37.83;18.30;;;4.30;99.90;;;;;;5011754;28;20030;-61
2021/11/27 09:03:39;;;;;;;33.83;18.80;;;4.30;99.90;;;;;;5012666;28;20105;-61
2021/11/27 09:06:06;;;;;;;36.97;19.70;;;4.20;99.90;;;;;;5013097;28;20029;-62
2021/11/27 09:08:32;;;;;;;38.33;19.17;;;4.20;99.90;;;;;;5011286;28;20108;-62
2021/11/27 09:10:59;;;;;;;41.92;20.63;;;4.20;99.90;;;;;;5012661;28;20033;-63
2021/11/27 09:13:25;;;;;;;38.20;18.85;;;4.30;99.90;;;;;;5011847;28;20408;-62
2021/11/27 09:15:51;;;;;;;36.88;18.85;;;4.30;99.90;;;;;;5012456;28;20364;-62
2021/11/27 09:18:16;;;;;;;40.22;19.10;;;4.20;99.90;;;;;;5011228;28;20034;-62
2021/11/27 09:20:42;;;;;;;34.00;18.98;;;4.20;99.90;;;;;;5012552;28;20026;-62
2021/11/27 09:23:08;;;;;;;40.33;19.15;;;4.20;99.90;;;;;;5011495;28;20038;-62
2021/11/27 09:25:35;;;;;;;40.35;20.73;;;4.20;99.90;;;;;;5012772;28;20030;-61
2021/11/27 09:28:00;;;;;;;39.85;19.60;;;4.20;99.90;;;;;;5010974;28;20029;-62
2021/11/27 09:30:31;;;;;;;37.70;18.75;;;4.30;99.90;;;;;;5012392;28;20052;-62
2021/11/27 09:32:57;;;;;;;42.47;19.15;;;4.30;99.90;;;;;;5011588;28;20112;-61
2021/11/27 09:35:23;;;;;;;40.88;20.67;;;4.30;99.90;;;;;;5012162;28;20091;-60
2021/11/27 09:37:49;;;;;;;41.10;19.42;;;4.20;99.90;;;;;;5012046;28;20041;-60
2021/11/27 09:40:16;;;;;;;39.03;18.63;;;4.30;99.90;;;;;;5010848;28;20033;-61
2021/11/27 09:42:44;;;;;;;42.47;19.95;;;4.30;99.90;;;;;;5012320;28;20380;-61
2021/11/27 09:45:10;;;;;;;37.45;18.60;;;4.20;99.90;;;;;;5011723;28;20029;-60
2021/11/27 09:47:37;;;;;;;38.65;18.70;;;4.30;99.90;;;;;;5011566;28;20124;-59
2021/11/27 09:50:07;;;;;;;38.53;19.08;;;4.30;99.90;;;;;;5011991;28;20018;-61
2021/11/27 09:52:34;;;;;;;40.42;18.42;;;4.20;99.90;;;;;;5012583;28;20030;-63
2021/11/27 09:55:01;;;;;;;41.65;20.50;;;4.20;99.90;;;;;;5013094;28;20029;-62
2021/11/27 09:57:27;;;;;;;39.90;19.60;;;4.20;99.90;;;;;;5012108;28;20030;-63
2021/11/27 09:59:53;;;;;;;43.10;20.25;;;4.20;99.90;;;;;;5011427;28;20030;-62
2021/11/27 10:02:22;;;;;;;35.78;18.70;;;4.20;99.90;;;;;;5009821;28;20414;-62
2021/11/27 10:04:54;;;;;;;39.88;19.38;;;4.20;99.90;;;;;;5009021;28;20066;-59
2021/11/27 10:07:22;;;;;;;39.00;18.67;;;4.20;99.90;;;;;;5011050;28;20025;-63
2021/11/27 10:09:52;;;;;;;36.25;17.80;;;4.20;99.90;;;;;;5002207;28;20535;-59
2021/11/27 10:12:20;;;;;;;38.33;19.05;;;4.20;99.90;;;;;;5004067;28;20022;-61
2021/11/27 10:14:46;;;;;;;40.05;18.15;;;4.20;99.90;;;;;;5011576;28;20022;-62
2021/11/27 10:17:17;;;;;;;36.92;18.70;;;4.30;99.90;;;;;;5011190;28;20372;-62
2021/11/27 10:19:43;;;;;;;34.00;17.07;;;4.30;99.90;;;;;;5009733;28;20053;-62
2021/11/27 10:22:10;;;;;;;38.83;18.60;;;4.30;99.90;;;;;;4996789;28;20022;-62
2021/11/27 10:24:38;;;;;;;38.30;17.25;;;4.30;99.90;;;;;;5000285;28;20027;-63
2021/11/27 10:27:15;;;;;;;40.65;18.50;;;4.30;99.90;;;;;;5009899;28;20455;-63
2021/11/27 10:29:41;;;;;;;38.88;18.65;;;4.30;99.90;;;;;;5009603;28;20022;-63
2021/11/27 10:32:18;;;;;;;35.70;17.10;;;4.30;99.90;;;;;;5010720;28;20030;-63
2021/11/27 10:34:54;;;;;;;37.00;17.25;;;4.30;99.90;;;;;;5009567;28;20483;-64
2021/11/27 10:37:34;;;;;;;42.35;18.58;;;4.30;99.90;;;;;;5004518;28;20030;-63
2021/11/27 10:40:08;;;;;;;39.95;17.52;;;4.20;99.90;;;;;;5001562;28;20057;-63
2021/11/27 10:42:35;;;;;;;35.42;17.35;;;4.30;99.90;;;;;;4991354;28;20042;-63
2021/11/27 10:45:19;;;;;;;35.70;17.65;;;4.30;99.90;;;;;;5008885;28;20049;-63
2021/11/27 10:47:46;;;;;;;38.65;17.50;;;4.20;99.90;;;;;;5008847;28;20022;-64
2021/11/27 10:50:20;;;;;;;37.83;17.92;;;4.20;99.90;;;;;;5010246;28;20033;-61
2021/11/27 10:52:48;;;;;;;38.80;18.45;;;4.20;99.90;;;;;;5009995;28;20459;-63
2021/11/27 10:55:26;;;;;;;40.88;18.77;;;4.30;99.90;;;;;;5010731;28;20037;-63
2021/11/27 10:57:59;;;;;;;45.53;19.50;;;4.30;99.90;;;;;;5010078;28;20088;-64
2021/11/27 11:00:56;;;;;;;37.83;19.05;;;4.30;99.90;;;;;;5010533;28;20459;-63
2021/11/27 11:03:34;;;;;;;38.40;17.80;;;4.30;99.90;;;;;;5003399;28;20081;-65
2021/11/27 11:06:22;;;;;;;38.33;18.25;;;4.20;99.90;;;;;;5010262;28;20034;-63
2021/11/27 11:08:49;;;;;;;39.05;17.75;;;4.20;99.90;;;;;;5002025;28;20072;-61
2021/11/27 11:11:24;;;;;;;37.05;17.98;;;4.20;99.90;;;;;;5009630;28;20030;-60
2021/11/27 11:13:53;;;;;;;42.30;18.50;;;4.20;99.90;;;;;;5010297;28;20026;-63
2021/11/27 11:16:22;;;;;;;41.72;19.35;;;4.20;99.90;;;;;;5009698;28;20084;-64
2021/11/27 11:18:51;;;;;;;44.20;18.50;;;4.10;99.90;;;;;;5002037;28;20026;-64
2021/11/27 11:21:18;;;;;;;42.08;19.08;;;4.20;99.90;;;;;;5009231;28;20033;-64
2021/11/27 11:23:45;;;;;;;39.08;17.80;;;4.20;99.90;;;;;;5010369;28;20049;-62
2021/11/27 11:26:14;;;;;;;36.83;18.38;;;4.10;99.90;;;;;;5009605;28;20045;-64
2021/11/27 11:28:47;;;;;;;39.25;19.25;;;4.10;99.90;;;;;;5010051;28;20041;-63
2021/11/27 11:31:19;;;;;;;37.35;17.25;;;4.10;99.90;;;;;;5009418;28;20355;-63
2021/11/27 11:33:47;;;;;;;;;;;4.00;99.90;;;;;;5011011;28;20070;-61
2021/11/27 11:36:16;;;;;;;37.97;18.85;;;4.00;99.90;;;;;;5009861;28;19913;-64
2021/11/27 11:38:47;;;;;;;36.60;18.35;;;4.00;99.90;;;;;;5010069;28;20037;-63
2021/11/27 11:41:14;;;;;;;35.00;18.10;;;4.00;99.90;;;;;;5010315;28;20029;-62
2021/11/27 11:43:40;;;;;;;37.35;17.30;;;3.90;99.90;;;;;;5009009;28;20276;-63
2021/11/27 11:46:07;;;;;;;40.15;18.52;;;4.00;99.90;;;;;;5009568;28;20034;-63
2021/11/27 11:48:33;;;;;;;34.22;17.13;;;4.00;99.90;;;;;;5035521;22;20029;-52
2021/11/27 11:51:09;;;;;;;38.50;17.58;;;4.00;99.90;;;;;;5012351;28;20029;-52
2021/11/27 11:53:40;;;;;;;37.72;18.60;;;3.90;99.90;;;;;;5012728;28;20431;-52
2021/11/27 11:56:09;;;;;;;41.53;20.10;;;3.90;99.90;;;;;;5010760;28;20036;-55
2021/11/27 11:58:39;;;;;;;35.45;17.98;;;3.90;99.90;;;;;;5011471;28;20034;-53
2021/11/27 12:01:20;;;;;;;32.75;16.23;;;4.00;99.90;;;;;;5021411;28;20022;-51
2021/11/27 12:03:49;;;;;;;35.97;18.20;;;3.90;99.90;;;;;;5014189;28;20407;-55
2021/11/27 12:06:25;;;;;;;33.72;16.55;;;3.90;99.90;;;;;;5011188;28;20113;-53
2021/11/27 12:08:51;;;;;;;35.92;17.65;;;3.90;99.90;;;;;;4991530;28;20483;-52
2021/11/27 12:11:45;;;;;;;34.47;17.60;;;3.90;99.90;;;;;;5003694;28;20109;-51
2021/11/27 12:14:24;;;;;;;38.15;16.83;;;3.90;99.90;;;;;;5010275;28;20594;-52
2021/11/27 12:17:14;;;;;;;30.10;15.70;;;3.80;99.90;;;;;;5004382;28;20033;-55
2021/11/27 12:19:40;;;;;;;32.80;15.40;;;3.80;99.90;;;;;;5006171;28;20101;-52
2021/11/27 12:22:37;;;;;;;26.38;14.27;;;3.80;99.90;;;;;;5008118;28;20037;-53
2021/11/27 12:25:23;;;;;;;32.47;14.88;;;3.70;99.90;;;;;;5008275;28;20018;-53
2021/11/27 12:28:04;;;;;;;30.98;16.25;;;3.70;99.90;;;;;;5004994;28;20049;-54
2021/11/27 12:30:44;;;;;;;27.40;15.18;;;3.70;99.90;;;;;;5012123;28;20334;-54
2021/11/27 12:33:47;;;;;;;26.33;14.75;;;3.70;99.90;;;;;;5013195;28;20129;-51
2021/11/27 12:36:25;;;;;;;32.15;14.23;;;3.70;99.90;;;;;;5010932;28;20029;-53
2021/11/27 12:39:04;;;;;;;25.30;13.82;;;3.60;99.90;;;;;;5006035;28;20173;-54
2021/11/27 12:41:36;;;;;;;28.27;14.27;;;3.60;99.90;;;;;;5012675;28;20025;-55
2021/11/27 12:44:16;;;;;;;26.38;14.60;;;3.50;99.90;;;;;;5012530;28;20033;-55